createdAt,value
2022-11-08T00:02:18.307Z,4.90
2022-11-08T00:04:45.980Z,6.47
2022-11-08T00:07:31.341Z,6.30
2022-11-08T00:10:16.636Z,4.13
2022-11-08T00:13:01.951Z,3.07
2022-11-08T00:15:29.726Z,3.60
2022-11-08T00:17:58.834Z,2.63
2022-11-08T00:20:26.387Z,4.83
2022-11-08T00:22:54.034Z,3.93
2022-11-08T00:25:21.745Z,3.60
2022-11-08T00:27:49.364Z,3.80
2022-11-08T00:30:17.181Z,2.73
2022-11-08T00:32:44.838Z,3.00
2022-11-08T00:35:14.062Z,4.40
2022-11-08T00:37:41.707Z,2.13
2022-11-08T00:40:10.516Z,1.83
2022-11-08T00:42:38.033Z,6.30
2022-11-08T00:45:06.689Z,2.30
2022-11-08T00:47:34.410Z,4.20
2022-11-08T00:50:02.298Z,5.63
2022-11-08T00:52:31.127Z,2.30
2022-11-08T00:54:58.634Z,1.70
2022-11-08T00:57:41.144Z,2.63
2022-11-08T01:00:15.052Z,4.13
2022-11-08T01:02:42.555Z,4.73
2022-11-08T01:05:10.413Z,5.33
2022-11-08T01:07:39.303Z,2.67
2022-11-08T01:10:07.928Z,2.10
2022-11-08T01:12:35.789Z,4.70
2022-11-08T01:15:03.355Z,2.27
2022-11-08T01:17:30.852Z,2.10
2022-11-08T01:19:58.412Z,3.87
2022-11-08T01:22:25.951Z,2.07
2022-11-08T01:24:54.820Z,6.23
2022-11-08T01:27:22.396Z,5.93
2022-11-08T01:29:49.956Z,2.83
2022-11-08T01:32:17.425Z,2.83
2022-11-08T01:34:44.915Z,2.30
2022-11-08T01:37:12.374Z,3.60
2022-11-08T01:39:39.879Z,1.93
2022-11-08T01:42:08.705Z,2.47
2022-11-08T01:45:00.492Z,2.87
2022-11-08T01:47:27.991Z,2.20
2022-11-08T01:49:57.367Z,2.23
2022-11-08T01:52:29.037Z,7.80
2022-11-08T01:55:13.266Z,2.43
2022-11-08T01:57:46.511Z,2.50
2022-11-08T02:00:14.881Z,2.67
2022-11-08T02:02:43.818Z,3.20
2022-11-08T02:05:25.585Z,2.53
2022-11-08T02:07:56.266Z,1.63
2022-11-08T02:10:26.489Z,3.53
2022-11-08T02:12:56.098Z,2.60
2022-11-08T02:15:25.058Z,4.90
2022-11-08T02:17:52.728Z,3.73
2022-11-08T02:20:20.353Z,3.50
2022-11-08T02:22:52.264Z,3.63
2022-11-08T02:25:21.180Z,6.17
2022-11-08T02:27:48.638Z,4.43
2022-11-08T02:30:16.159Z,3.43
2022-11-08T02:32:43.940Z,6.50
2022-11-08T02:35:14.130Z,4.73
2022-11-08T02:37:42.027Z,4.30
2022-11-08T02:40:10.577Z,4.83
2022-11-08T02:42:39.793Z,9.00
2022-11-08T02:45:08.783Z,6.23
2022-11-08T02:47:36.313Z,4.37
2022-11-08T02:50:04.429Z,3.73
2022-11-08T02:52:31.956Z,4.40
2022-11-08T02:54:59.499Z,3.13
2022-11-08T02:57:27.032Z,5.80
2022-11-08T02:59:55.867Z,4.47
2022-11-08T03:02:23.497Z,7.33
2022-11-08T03:04:51.084Z,4.03
2022-11-08T03:07:23.676Z,2.80
2022-11-08T03:09:52.210Z,5.47
2022-11-08T03:12:20.124Z,3.43
2022-11-08T03:14:47.645Z,2.70
2022-11-08T03:17:16.518Z,5.80
2022-11-08T03:19:44.016Z,7.67
2022-11-08T03:22:11.515Z,4.03
2022-11-08T03:24:39.012Z,5.10
2022-11-08T03:27:06.519Z,5.67
2022-11-08T03:29:34.011Z,6.57
2022-11-08T03:32:01.491Z,4.13
2022-11-08T03:34:30.296Z,3.40
2022-11-08T03:36:57.879Z,5.33
2022-11-08T03:39:25.475Z,3.43
2022-11-08T03:41:53.013Z,4.07
2022-11-08T03:44:20.546Z,4.43
2022-11-08T03:46:48.057Z,3.30
2022-11-08T03:49:15.588Z,5.70
2022-11-08T03:51:44.395Z,5.60
2022-11-08T03:54:12.018Z,3.90
2022-11-08T03:56:39.580Z,5.07
2022-11-08T03:59:07.143Z,4.93
2022-11-08T04:01:34.716Z,3.37
2022-11-08T04:04:02.296Z,6.33
2022-11-08T04:06:29.809Z,6.27
2022-11-08T04:08:58.621Z,6.27
2022-11-08T04:11:43.980Z,4.80
2022-11-08T04:14:29.220Z,5.47
2022-11-08T04:16:57.113Z,5.10
2022-11-08T04:19:42.366Z,6.10
2022-11-08T04:22:11.405Z,5.00
2022-11-08T04:24:40.275Z,6.13
2022-11-08T04:27:07.797Z,4.97
2022-11-08T04:29:35.260Z,5.70
2022-11-08T04:32:02.753Z,4.67
2022-11-08T04:34:30.235Z,6.23
2022-11-08T04:36:57.763Z,8.87
2022-11-08T04:39:25.241Z,5.23
2022-11-08T04:41:59.158Z,8.20
2022-11-08T04:44:29.309Z,7.90
2022-11-08T04:46:56.866Z,5.70
2022-11-08T04:49:24.351Z,5.70
2022-11-08T04:51:51.864Z,4.30
2022-11-08T04:54:19.361Z,4.30
2022-11-08T04:56:46.826Z,8.63
2022-11-08T04:59:15.660Z,5.23
2022-11-08T05:01:43.299Z,8.67
2022-11-08T05:04:10.929Z,6.47
2022-11-08T05:06:38.472Z,7.60
2022-11-08T05:09:05.963Z,9.10
2022-11-08T05:11:33.449Z,5.73
2022-11-08T05:14:00.926Z,4.60
2022-11-08T05:16:30.984Z,7.20
2022-11-08T05:18:58.769Z,4.00
2022-11-08T05:21:44.206Z,6.00
2022-11-08T05:24:14.420Z,5.63
2022-11-08T05:26:43.636Z,6.20
2022-11-08T05:29:11.713Z,6.27
2022-11-08T05:31:40.885Z,5.07
2022-11-08T05:34:08.400Z,5.47
2022-11-08T05:36:35.928Z,6.90
2022-11-08T05:39:03.449Z,6.00
2022-11-08T05:41:31.007Z,6.23
2022-11-08T05:43:58.586Z,5.30
2022-11-08T05:46:26.306Z,4.50
2022-11-08T05:48:55.232Z,7.37
2022-11-08T05:51:22.730Z,4.97
2022-11-08T05:53:50.350Z,3.60
2022-11-08T05:56:18.769Z,3.40
2022-11-08T05:58:46.595Z,6.20
2022-11-08T06:01:16.249Z,6.67
2022-11-08T06:03:44.047Z,9.20
2022-11-08T06:06:14.817Z,12.63
2022-11-08T06:08:46.268Z,10.30
2022-11-08T06:11:21.274Z,7.30
2022-11-08T06:13:48.775Z,9.73
2022-11-08T06:16:17.434Z,5.60
2022-11-08T06:18:45.240Z,4.60
2022-11-08T06:21:15.787Z,4.43
2022-11-08T06:23:43.549Z,5.33
2022-11-08T06:26:11.069Z,11.27
2022-11-08T06:28:38.859Z,4.93
2022-11-08T06:31:06.701Z,5.30
2022-11-08T06:33:34.544Z,5.10
2022-11-08T06:36:02.060Z,5.60
2022-11-08T06:38:31.020Z,4.27
2022-11-08T06:41:00.071Z,7.00
2022-11-08T06:43:28.089Z,7.37
2022-11-08T06:45:55.822Z,5.30
2022-11-08T06:48:23.330Z,5.40
2022-11-08T06:50:50.836Z,7.40
2022-11-08T06:53:18.623Z,6.70
2022-11-08T06:55:47.657Z,6.40
2022-11-08T06:58:15.181Z,7.23
2022-11-08T07:00:42.646Z,5.30
2022-11-08T07:03:10.913Z,5.50
2022-11-08T07:05:38.534Z,7.20
2022-11-08T07:08:07.167Z,7.50
2022-11-08T07:10:34.923Z,7.43
2022-11-08T07:13:05.965Z,5.93
2022-11-08T07:15:34.572Z,4.93
2022-11-08T07:18:03.203Z,6.57
2022-11-08T07:20:31.363Z,8.07
2022-11-08T07:23:00.018Z,13.33
2022-11-08T07:25:29.021Z,5.10
2022-11-08T07:27:57.545Z,9.30
2022-11-08T07:30:26.903Z,5.70
2022-11-08T07:32:54.837Z,6.93
2022-11-08T07:35:22.954Z,10.53
2022-11-08T07:37:50.570Z,7.03
2022-11-08T07:40:18.340Z,8.90
2022-11-08T07:45:34.972Z,8.63
2022-11-08T07:48:10.668Z,5.03
2022-11-08T07:50:39.922Z,6.53
2022-11-08T07:53:07.673Z,6.43
2022-11-08T07:55:37.272Z,8.53
2022-11-08T07:58:05.159Z,8.20
2022-11-08T08:00:38.485Z,8.40
2022-11-08T08:03:07.848Z,8.77
2022-11-08T08:05:37.203Z,6.70
2022-11-08T08:08:05.164Z,7.73
2022-11-08T08:10:33.190Z,10.80
2022-11-08T08:13:00.955Z,8.97
2022-11-08T08:15:28.515Z,8.30
2022-11-08T08:17:57.382Z,13.20
2022-11-08T08:20:24.895Z,7.93
2022-11-08T08:22:52.745Z,7.90
2022-11-08T08:25:20.660Z,8.53
2022-11-08T08:27:48.610Z,8.37
2022-11-08T08:30:17.804Z,8.43
2022-11-08T08:32:47.915Z,8.37
2022-11-08T08:35:20.367Z,13.30
2022-11-08T08:37:50.028Z,8.30
2022-11-08T08:40:18.898Z,13.30
2022-11-08T08:42:58.776Z,9.90
2022-11-08T08:45:56.237Z,9.17
2022-11-08T08:48:33.335Z,10.30
2022-11-08T08:51:03.614Z,11.93
2022-11-08T08:53:34.105Z,7.30
2022-11-08T08:56:06.708Z,14.87
2022-11-08T08:58:34.636Z,9.90
2022-11-08T09:03:50.746Z,12.77
2022-11-08T09:06:19.982Z,8.30
2022-11-08T09:08:49.081Z,11.07
2022-11-08T09:11:17.350Z,7.90
2022-11-08T09:13:45.126Z,7.73
2022-11-08T09:16:14.207Z,9.80
2022-11-08T09:18:42.375Z,7.50
2022-11-08T09:21:10.581Z,8.67
2022-11-08T09:23:41.530Z,12.43
2022-11-08T09:26:09.181Z,8.00
2022-11-08T09:28:37.509Z,10.13
2022-11-08T09:31:06.395Z,10.17
2022-11-08T09:33:34.643Z,10.70
2022-11-08T09:36:02.450Z,12.83
2022-11-08T09:38:30.547Z,11.43
2022-11-08T09:41:12.621Z,13.67
2022-11-08T09:43:48.216Z,12.60
2022-11-08T09:46:21.557Z,10.40
2022-11-08T09:48:49.159Z,18.17
2022-11-08T09:51:18.408Z,8.77
2022-11-08T09:53:50.204Z,11.23
2022-11-08T09:56:24.909Z,10.47
2022-11-08T09:58:54.307Z,10.07
2022-11-08T10:01:26.862Z,11.67
2022-11-08T10:03:56.622Z,9.53
2022-11-08T10:06:58.196Z,7.10
2022-11-08T10:09:40.503Z,13.90
2022-11-08T10:12:19.136Z,5.17
2022-11-08T10:14:58.240Z,5.13
2022-11-08T10:17:42.085Z,9.20
2022-11-08T10:20:17.547Z,6.43
2022-11-08T10:22:51.620Z,6.07
2022-11-08T10:25:22.114Z,5.10
2022-11-08T10:28:28.367Z,4.73
2022-11-08T10:30:56.918Z,5.27
2022-11-08T10:33:30.448Z,6.43
2022-11-08T10:36:02.420Z,4.90
2022-11-08T10:38:36.235Z,5.63
2022-11-08T10:41:09.505Z,5.87
2022-11-08T10:43:43.409Z,5.23
2022-11-08T10:46:36.262Z,7.77
2022-11-08T10:49:12.437Z,6.17
2022-11-08T10:51:40.154Z,5.00
2022-11-08T10:54:08.421Z,4.40
2022-11-08T10:56:55.432Z,5.30
2022-11-08T10:59:32.871Z,5.57
2022-11-08T11:02:01.025Z,4.50
2022-11-08T11:04:30.816Z,3.80
2022-11-08T11:07:02.515Z,11.13
2022-11-08T11:09:30.298Z,4.73
2022-11-08T11:11:58.804Z,3.27
2022-11-08T11:14:26.844Z,3.47
2022-11-08T11:16:58.915Z,3.03
2022-11-08T11:19:27.015Z,2.70
2022-11-08T11:21:58.005Z,2.20
2022-11-08T11:24:25.783Z,6.60
2022-11-08T11:27:02.818Z,3.83
2022-11-08T11:29:31.649Z,3.23
2022-11-08T11:32:25.194Z,2.53
2022-11-08T11:34:58.273Z,2.97
2022-11-08T11:37:33.909Z,3.13
2022-11-08T11:40:05.926Z,3.47
2022-11-08T11:42:45.833Z,2.93
2022-11-08T11:45:19.362Z,4.53
2022-11-08T11:47:53.807Z,4.40
2022-11-08T11:50:31.268Z,2.87
2022-11-08T11:53:00.393Z,5.70
2022-11-08T11:55:35.791Z,3.47
2022-11-08T11:58:12.782Z,2.70
2022-11-08T12:00:46.122Z,5.10
2022-11-08T12:03:31.947Z,3.20
2022-11-08T12:06:29.763Z,3.50
2022-11-08T12:09:12.113Z,4.13
2022-11-08T12:11:47.793Z,4.50
2022-11-08T12:14:35.461Z,6.90
2022-11-08T12:17:17.670Z,6.93
2022-11-08T12:19:51.676Z,5.20
2022-11-08T12:22:29.877Z,3.40
2022-11-08T12:25:02.546Z,3.07
2022-11-08T12:27:38.452Z,3.27
2022-11-08T12:30:10.319Z,5.17
2022-11-08T12:32:54.990Z,5.83
2022-11-08T12:35:32.528Z,5.77
2022-11-08T12:38:17.720Z,3.57
2022-11-08T12:40:50.703Z,3.33
2022-11-08T12:43:33.152Z,3.23
2022-11-08T12:46:08.679Z,4.30
2022-11-08T12:48:48.537Z,8.73
2022-11-08T12:51:23.759Z,3.17
2022-11-08T12:54:02.869Z,5.00
2022-11-08T12:56:35.935Z,5.00
2022-11-08T12:59:03.663Z,4.20
2022-11-08T13:01:31.403Z,3.77
2022-11-08T13:04:36.054Z,4.80
2022-11-08T13:07:10.660Z,6.80
2022-11-08T13:09:43.329Z,3.53
2022-11-08T13:12:27.007Z,5.27
2022-11-08T13:14:54.630Z,4.20
2022-11-08T13:17:26.200Z,3.90
2022-11-08T13:20:04.649Z,5.73
2022-11-08T13:22:47.754Z,5.00
2022-11-08T13:25:38.786Z,11.67
2022-11-08T13:28:43.724Z,1.70
2022-11-08T13:31:20.954Z,3.37
2022-11-08T13:34:04.744Z,3.37
2022-11-08T13:36:40.769Z,1.50
2022-11-08T13:39:26.874Z,1.90
2022-11-08T13:42:09.953Z,3.00
2022-11-08T13:45:16.797Z,5.27
2022-11-08T13:47:56.117Z,2.53
2022-11-08T13:50:54.631Z,1.90
2022-11-08T13:53:51.549Z,2.30
2022-11-08T13:56:46.505Z,3.03
2022-11-08T13:59:50.970Z,2.17
2022-11-08T14:02:32.698Z,3.83
2022-11-08T14:05:19.948Z,4.37
2022-11-08T14:07:49.141Z,2.43
2022-11-08T14:10:21.130Z,1.50
2022-11-08T14:12:54.109Z,1.93
2022-11-08T14:15:25.228Z,2.33
2022-11-08T14:17:54.890Z,2.23
2022-11-08T14:20:32.883Z,2.50
2022-11-08T14:23:05.121Z,2.50
2022-11-08T14:25:35.539Z,2.47
2022-11-08T14:28:05.567Z,2.10
2022-11-08T14:30:33.502Z,2.30
2022-11-08T14:33:08.955Z,2.80
2022-11-08T14:35:36.824Z,1.80
2022-11-08T14:38:04.750Z,2.60
2022-11-08T14:40:32.415Z,2.47
2022-11-08T14:42:59.993Z,2.13
2022-11-08T14:45:30.159Z,2.90
2022-11-08T14:48:03.315Z,1.87
2022-11-08T14:50:33.137Z,2.50
2022-11-08T14:53:21.944Z,3.37
2022-11-08T14:55:56.547Z,4.70
2022-11-08T14:58:28.624Z,3.30
2022-11-08T15:00:58.911Z,3.90
2022-11-08T15:03:28.929Z,2.33
2022-11-08T15:05:57.606Z,3.07
2022-11-08T15:09:05.634Z,3.33
2022-11-08T15:11:35.012Z,1.90
2022-11-08T15:14:04.554Z,3.30
2022-11-08T15:16:41.038Z,3.30
2022-11-08T15:19:37.265Z,4.37
2022-11-08T15:22:23.922Z,1.63
2022-11-08T15:25:01.289Z,4.10
2022-11-08T15:27:29.101Z,2.90
2022-11-08T15:30:01.412Z,3.07
2022-11-08T15:32:36.671Z,1.83
2022-11-08T15:35:05.212Z,1.93
2022-11-08T15:37:35.620Z,3.67
2022-11-08T15:40:04.779Z,2.70
2022-11-08T15:42:47.575Z,2.37
2022-11-08T15:45:25.176Z,2.97
2022-11-08T15:47:55.018Z,6.23
2022-11-08T15:50:23.835Z,2.13
2022-11-08T15:52:53.490Z,2.60
2022-11-08T15:55:22.978Z,2.53
2022-11-08T15:57:51.528Z,3.50
2022-11-08T16:00:24.043Z,3.43
2022-11-08T16:02:54.596Z,3.27
2022-11-08T16:05:25.011Z,2.73
2022-11-08T16:07:53.239Z,4.90
2022-11-08T16:10:32.007Z,2.40
2022-11-08T16:13:00.947Z,2.53
2022-11-08T16:15:30.747Z,2.20
2022-11-08T16:17:58.351Z,2.63
2022-11-08T16:20:28.902Z,3.40
2022-11-08T16:22:57.048Z,6.37
2022-11-08T16:25:25.900Z,4.43
2022-11-08T16:27:54.656Z,2.47
2022-11-08T16:30:25.171Z,3.80
2022-11-08T16:32:53.045Z,3.97
2022-11-08T16:35:20.621Z,3.43
2022-11-08T16:37:51.064Z,3.10
2022-11-08T16:40:20.910Z,10.00
2022-11-08T16:42:50.225Z,5.10
2022-11-08T16:45:24.296Z,4.37
2022-11-08T16:48:05.852Z,2.90
2022-11-08T16:50:33.489Z,2.27
2022-11-08T16:53:02.402Z,4.03
2022-11-08T16:55:30.760Z,5.70
2022-11-08T16:58:02.241Z,4.27
2022-11-08T17:00:29.845Z,5.67
2022-11-08T17:02:57.317Z,4.00
2022-11-08T17:05:26.347Z,3.47
2022-11-08T17:07:55.605Z,4.67
2022-11-08T17:10:25.727Z,6.20
2022-11-08T17:12:53.600Z,3.80
2022-11-08T17:15:22.263Z,5.47
2022-11-08T17:17:50.558Z,6.20
2022-11-08T17:20:19.961Z,4.83
2022-11-08T17:22:47.929Z,8.53
2022-11-08T17:25:17.147Z,6.83
2022-11-08T17:27:46.492Z,7.90
2022-11-08T17:30:15.620Z,8.60
2022-11-08T17:32:43.290Z,8.07
2022-11-08T17:35:12.212Z,11.73
2022-11-08T17:37:39.965Z,8.67
2022-11-08T17:40:09.024Z,16.60
2022-11-08T17:42:38.887Z,24.40
2022-11-08T17:45:09.882Z,19.33
2022-11-08T17:47:37.943Z,19.57
2022-11-08T17:50:06.515Z,17.83
2022-11-08T17:52:34.189Z,22.37
2022-11-08T17:55:01.693Z,14.93
2022-11-08T17:57:29.206Z,21.07
2022-11-08T17:59:57.068Z,15.10
2022-11-08T18:02:27.336Z,15.83
2022-11-08T18:04:57.033Z,15.23
2022-11-08T18:07:25.555Z,13.00
2022-11-08T18:09:53.055Z,8.03
2022-11-08T18:12:20.692Z,10.10
2022-11-08T18:14:48.582Z,7.33
2022-11-08T18:17:16.061Z,7.60
2022-11-08T18:19:45.331Z,6.17
2022-11-08T18:22:13.041Z,9.87
2022-11-08T18:24:40.929Z,8.00
2022-11-08T18:27:09.580Z,7.03
2022-11-08T18:29:37.180Z,5.77
2022-11-08T18:32:05.162Z,7.90
2022-11-08T18:34:32.717Z,9.57
2022-11-08T18:37:01.545Z,7.83
2022-11-08T18:39:29.098Z,11.20
2022-11-08T18:41:56.574Z,11.20
2022-11-08T18:44:24.225Z,9.93
2022-11-08T18:46:51.782Z,11.90
2022-11-08T18:49:19.302Z,11.53
2022-11-08T18:51:51.854Z,7.67
2022-11-08T18:54:20.901Z,13.77
2022-11-08T18:56:48.418Z,7.73
2022-11-08T18:59:16.046Z,8.67
2022-11-08T19:01:43.709Z,6.93
2022-11-08T19:04:11.263Z,9.60
2022-11-08T19:06:38.869Z,8.27
2022-11-08T19:09:06.647Z,7.47
2022-11-08T19:11:36.643Z,7.73
2022-11-08T19:14:04.543Z,9.13
2022-11-08T19:16:32.301Z,6.70
2022-11-08T19:19:00.918Z,6.87
2022-11-08T19:21:29.378Z,9.57
2022-11-08T19:23:59.377Z,9.10
2022-11-08T19:26:28.819Z,6.70
2022-11-08T19:28:58.562Z,9.50
2022-11-08T19:31:27.234Z,8.33
2022-11-08T19:33:57.771Z,9.27
2022-11-08T19:36:28.186Z,7.60
2022-11-08T19:38:58.173Z,11.13
2022-11-08T19:41:27.048Z,8.00
2022-11-08T19:43:56.112Z,6.83
2022-11-08T19:46:26.888Z,7.20
2022-11-08T19:48:54.784Z,7.10
2022-11-08T19:51:24.629Z,7.83
2022-11-08T19:53:55.893Z,6.63
2022-11-08T19:56:37.996Z,6.33
2022-11-08T19:59:11.554Z,9.33
2022-11-08T20:01:40.991Z,11.00
2022-11-08T20:04:10.188Z,11.00
2022-11-08T20:06:38.036Z,8.07
2022-11-08T20:09:06.582Z,8.67
2022-11-08T20:11:40.137Z,11.90
2022-11-08T20:14:08.020Z,11.00
2022-11-08T20:16:38.070Z,12.13
2022-11-08T20:19:08.953Z,11.63
2022-11-08T20:21:38.786Z,14.20
2022-11-08T20:24:07.351Z,8.73
2022-11-08T20:26:37.485Z,9.93
2022-11-08T20:29:05.877Z,8.23
2022-11-08T20:31:33.927Z,13.53
2022-11-08T20:34:05.840Z,10.47
2022-11-08T20:36:49.572Z,11.73
2022-11-08T20:39:17.361Z,8.67
2022-11-08T20:41:45.275Z,11.47
2022-11-08T20:44:13.112Z,8.50
2022-11-08T20:46:40.836Z,8.60
2022-11-08T20:49:09.167Z,9.07
2022-11-08T20:51:38.596Z,8.77
2022-11-08T20:54:06.477Z,10.27
2022-11-08T20:56:34.441Z,12.27
2022-11-08T20:59:03.072Z,11.50
2022-11-08T21:01:34.378Z,11.20
2022-11-08T21:04:02.679Z,9.83
2022-11-08T21:06:36.075Z,8.43
2022-11-08T21:11:54.434Z,10.30
2022-11-08T21:14:23.602Z,9.63
2022-11-08T21:19:39.480Z,10.30
2022-11-08T21:22:17.245Z,9.40
2022-11-08T21:24:48.050Z,8.47
2022-11-08T21:27:38.234Z,9.93
2022-11-08T21:30:10.775Z,9.57
2022-11-08T21:32:41.713Z,11.03
2022-11-08T21:35:13.333Z,11.33
2022-11-08T21:37:40.986Z,9.40
2022-11-08T21:40:11.346Z,8.73
2022-11-08T21:42:40.325Z,10.87
2022-11-08T21:45:10.848Z,10.40
2022-11-08T21:47:38.665Z,8.33
2022-11-08T21:50:09.354Z,9.43
2022-11-08T21:52:39.497Z,13.17
2022-11-08T21:55:13.537Z,8.80
2022-11-08T21:57:42.338Z,9.40
2022-11-08T22:00:12.319Z,6.77
2022-11-08T22:02:41.184Z,6.90
2022-11-08T22:05:11.670Z,6.53
2022-11-08T22:07:39.640Z,8.70
2022-11-08T22:10:13.437Z,11.33
2022-11-08T22:12:44.613Z,6.87
2022-11-08T22:15:14.115Z,7.93
2022-11-08T22:18:00.975Z,10.00
2022-11-08T22:20:32.144Z,5.83
2022-11-08T22:23:01.761Z,8.50
2022-11-08T22:25:32.610Z,7.33
2022-11-08T22:28:12.012Z,5.20
2022-11-08T22:30:39.644Z,6.67
2022-11-08T22:33:08.468Z,7.27
2022-11-08T22:35:36.188Z,10.03
2022-11-08T22:38:06.551Z,6.60
2022-11-08T22:40:35.492Z,7.60
2022-11-08T22:43:05.788Z,6.77
2022-11-08T22:45:38.300Z,8.60
2022-11-08T22:48:06.363Z,6.33
2022-11-08T22:50:34.301Z,5.53
2022-11-08T22:53:02.104Z,7.90
2022-11-08T22:55:29.881Z,14.83
2022-11-08T22:57:57.594Z,7.20
2022-11-08T23:00:30.132Z,8.03
2022-11-08T23:02:57.827Z,8.30
2022-11-08T23:05:25.349Z,8.10
2022-11-08T23:07:52.867Z,11.30
2022-11-08T23:10:20.506Z,7.73
2022-11-08T23:13:05.605Z,7.00
2022-11-08T23:15:52.104Z,7.23
2022-11-08T23:18:19.944Z,8.73
2022-11-08T23:21:04.772Z,7.67
2022-11-08T23:23:50.236Z,6.80
2022-11-08T23:26:38.215Z,7.60
2022-11-08T23:29:23.672Z,11.47
2022-11-08T23:31:52.518Z,9.30
2022-11-08T23:34:19.972Z,6.47
2022-11-08T23:36:47.428Z,7.63
2022-11-08T23:39:14.915Z,8.10
2022-11-08T23:42:06.213Z,7.50
2022-11-08T23:44:34.234Z,7.37
2022-11-08T23:47:03.138Z,10.63
2022-11-08T23:49:30.615Z,8.80
2022-11-08T23:51:58.179Z,12.40
2022-11-08T23:54:25.685Z,9.90
2022-11-08T23:56:53.196Z,8.77
2022-11-08T23:59:20.784Z,9.20
